Time;durP1;ratioP1;P1;durP2;ratioP2;P2;SDS_P1;SDS_P2;PMS_P1;PMS_P2;Temp;Humidity;BMP_temperature;BMP_pressure;BME280_temperature;BME280_humidity;BME280_pressure;Samples;Min_cycle;Max_cycle;Signal;HPM_P1;HPM_P2
2022/06/06 00:01:18;;;;;;;7.72;5.15;;;26.70;52.00;;;;;;5053706;28;20032;-82
2022/06/06 00:03:44;;;;;;;6.68;5.47;;;26.80;51.50;;;;;;5056091;28;20036;-84
2022/06/06 00:06:15;;;;;;;7.40;5.60;;;26.80;51.30;;;;;;5056079;28;20013;-78
2022/06/06 00:08:42;;;;;;;7.15;5.05;;;26.60;51.00;;;;;;5055952;28;20025;-83
2022/06/06 00:11:09;;;;;;;5.85;5.25;;;26.40;51.50;;;;;;5056053;28;20020;-92
2022/06/06 00:13:37;;;;;;;8.05;5.13;;;26.30;51.40;;;;;;5054677;28;20025;-85
2022/06/06 00:16:03;;;;;;;6.82;5.25;;;26.20;51.50;;;;;;5054510;28;20029;-84
2022/06/06 00:18:29;;;;;;;5.88;5.15;;;26.20;51.80;;;;;;5050618;28;20020;-87
2022/06/06 00:20:56;;;;;;;6.60;4.72;;;26.20;51.50;;;;;;5054606;28;20025;-82
2022/06/06 00:23:21;;;;;;;5.95;5.03;;;26.30;51.80;;;;;;5054582;28;20024;-84
2022/06/06 00:25:47;;;;;;;6.20;5.18;;;26.30;51.80;;;;;;5052627;28;20021;-85
2022/06/06 00:28:13;;;;;;;6.03;4.85;;;26.30;51.50;;;;;;5053570;28;20074;-82
2022/06/06 00:30:39;;;;;;;6.35;5.65;;;26.40;51.40;;;;;;5050246;28;20017;-88
2022/06/06 00:35:49;;;;;;;6.82;5.20;;;26.50;51.30;;;;;;5054042;28;20089;-82
2022/06/06 00:38:15;;;;;;;8.35;5.28;;;26.40;51.70;;;;;;5053190;28;20017;-82
2022/06/06 00:40:40;;;;;;;7.57;5.10;;;26.40;51.70;;;;;;5054992;28;20029;-80
2022/06/06 00:43:08;;;;;;;8.80;5.57;;;26.50;51.60;;;;;;5037615;28;20090;-85
2022/06/06 00:45:35;;;;;;;8.35;5.07;;;26.50;51.50;;;;;;5054038;28;20468;-83
2022/06/06 00:48:23;;;;;;;7.78;5.35;;;26.50;51.40;;;;;;5053773;28;20060;-83
2022/06/06 00:51:07;;;;;;;7.60;5.07;;;26.50;52.00;;;;;;5053574;28;20114;-81
2022/06/06 00:53:40;;;;;;;6.45;5.45;;;26.60;51.60;;;;;;5053723;28;20079;-83
2022/06/06 00:56:32;;;;;;;7.47;5.50;;;26.50;52.20;;;;;;5053270;28;20345;-80
2022/06/06 00:59:09;;;;;;;7.43;5.35;;;26.50;52.30;;;;;;5052746;28;20162;-82
2022/06/06 01:01:35;;;;;;;9.82;5.40;;;26.40;52.30;;;;;;5052750;28;20025;-80
2022/06/06 01:04:04;;;;;;;6.70;5.40;;;26.30;52.80;;;;;;5052321;28;20036;-86
2022/06/06 01:06:34;;;;;;;7.47;5.47;;;26.10;52.20;;;;;;5053718;28;20016;-82
2022/06/06 01:09:01;;;;;;;7.88;5.72;;;26.10;52.20;;;;;;5053198;28;20162;-84
2022/06/06 01:11:27;;;;;;;6.20;5.15;;;26.00;52.60;;;;;;5052860;28;20032;-79
2022/06/06 01:13:54;;;;;;;7.18;5.40;;;26.10;52.10;;;;;;5050237;28;20061;-81
2022/06/06 01:16:31;;;;;;;6.38;5.57;;;26.10;52.80;;;;;;5050630;28;20025;-80
2022/06/06 01:19:01;;;;;;;6.53;5.78;;;26.30;52.10;;;;;;5051529;28;20025;-80
2022/06/06 01:21:43;;;;;;;7.22;6.07;;;26.50;52.20;;;;;;5050888;28;20104;-81
2022/06/06 01:24:29;;;;;;;7.53;6.25;;;26.30;52.60;;;;;;5050520;28;20029;-79
2022/06/06 01:27:22;;;;;;;8.85;5.40;;;25.80;53.80;;;;;;5051807;28;20025;-80
2022/06/06 01:29:53;;;;;;;9.48;6.10;;;25.60;54.00;;;;;;5052408;28;20370;-81
2022/06/06 01:32:22;;;;;;;7.82;5.93;;;25.70;54.70;;;;;;5049479;28;20052;-79
2022/06/06 01:34:48;;;;;;;8.35;5.80;;;26.00;54.20;;;;;;5051793;28;20037;-78
2022/06/06 01:37:36;;;;;;;7.28;5.97;;;26.20;54.00;;;;;;5051148;28;20017;-80
2022/06/06 01:40:06;;;;;;;7.93;6.47;;;26.10;54.10;;;;;;5050368;28;20123;-80
2022/06/06 01:42:31;;;;;;;7.93;5.90;;;26.20;53.90;;;;;;5038821;28;20367;-77
2022/06/06 01:45:06;;;;;;;14.57;6.45;;;26.10;53.80;;;;;;5050668;28;20021;-79
2022/06/06 01:47:40;;;;;;;8.60;6.10;;;25.60;54.30;;;;;;5051767;28;20051;-81
2022/06/06 01:50:07;;;;;;;7.38;6.50;;;25.50;54.60;;;;;;5051057;28;20051;-80
2022/06/06 01:52:53;;;;;;;9.98;5.68;;;25.60;54.60;;;;;;5052114;28;20363;-80
2022/06/06 01:55:19;;;;;;;6.30;5.70;;;25.70;54.40;;;;;;5051684;28;20060;-88
2022/06/06 01:57:46;;;;;;;10.13;6.55;;;25.60;54.50;;;;;;5049145;28;20116;-80
2022/06/06 02:00:13;;;;;;;7.45;6.00;;;25.60;55.00;;;;;;5050339;28;20039;-80
2022/06/06 02:02:40;;;;;;;8.95;6.15;;;25.70;54.50;;;;;;5050883;28;20021;-80
2022/06/06 02:05:06;;;;;;;13.82;6.15;;;25.40;54.70;;;;;;5051404;28;20486;-79
2022/06/06 02:07:33;;;;;;;8.27;6.65;;;25.60;54.20;;;;;;5051135;28;20128;-79
2022/06/06 02:09:58;;;;;;;8.10;5.90;;;25.90;53.80;;;;;;5052029;28;20128;-76
2022/06/06 02:12:24;;;;;;;12.20;6.20;;;26.30;53.50;;;;;;5050641;28;20520;-80
2022/06/06 02:14:50;;;;;;;6.55;5.90;;;26.50;53.20;;;;;;5050273;28;20391;-80
2022/06/06 02:17:15;;;;;;;7.65;6.05;;;26.60;52.80;;;;;;5049332;28;20021;-80
2022/06/06 02:19:42;;;;;;;10.15;6.25;;;26.70;52.70;;;;;;5050828;28;20027;-81
2022/06/06 02:22:08;;;;;;;8.10;5.85;;;26.70;52.80;;;;;;5050410;28;20464;-78
2022/06/06 02:24:34;;;;;;;7.38;5.88;;;26.70;52.30;;;;;;5052179;28;20029;-80
2022/06/06 02:27:00;;;;;;;8.25;5.97;;;26.40;53.30;;;;;;5050309;28;20075;-79
2022/06/06 02:29:25;;;;;;;6.65;5.80;;;26.40;52.90;;;;;;5052053;28;20017;-80
2022/06/06 02:31:51;;;;;;;6.97;5.80;;;26.50;52.50;;;;;;5051803;28;20111;-80
2022/06/06 02:34:17;;;;;;;5.93;5.30;;;26.50;52.70;;;;;;5050023;28;20533;-83
2022/06/06 02:36:43;;;;;;;9.98;5.50;;;26.30;52.90;;;;;;5050534;28;20021;-80
2022/06/06 02:39:08;;;;;;;8.50;6.30;;;26.40;52.80;;;;;;5051417;28;20363;-81
2022/06/06 02:41:34;;;;;;;6.65;5.95;;;26.30;53.00;;;;;;5050302;28;20021;-82
2022/06/06 02:44:00;;;;;;;8.45;5.53;;;26.30;53.30;;;;;;5051025;28;20079;-83
2022/06/06 02:46:26;;;;;;;7.03;5.93;;;26.30;53.40;;;;;;5051564;28;20075;-81
2022/06/06 02:48:51;;;;;;;8.00;6.15;;;26.50;53.10;;;;;;5051400;28;20017;-81
2022/06/06 02:51:17;;;;;;;8.70;6.20;;;26.50;53.20;;;;;;5051534;28;20474;-80
2022/06/06 02:53:43;;;;;;;6.70;6.00;;;26.50;53.00;;;;;;5050759;28;20021;-78
2022/06/06 02:56:09;;;;;;;9.95;6.40;;;26.50;52.90;;;;;;5051660;28;20052;-80
2022/06/06 02:58:34;;;;;;;8.05;6.38;;;26.50;52.70;;;;;;5045729;28;20051;-79
2022/06/06 03:01:09;;;;;;;7.90;6.40;;;26.60;53.10;;;;;;5051435;28;20052;-81
2022/06/06 03:03:36;;;;;;;8.98;6.55;;;26.70;53.60;;;;;;5055846;28;20025;-79
2022/06/06 03:06:08;;;;;;;7.07;6.28;;;26.70;53.30;;;;;;5054580;28;20108;-79
2022/06/06 03:08:54;;;;;;;6.45;5.80;;;26.60;53.90;;;;;;5054691;28;20443;-80
2022/06/06 03:11:25;;;;;;;9.52;6.47;;;26.40;53.40;;;;;;5034723;28;20041;-80
2022/06/06 03:14:03;;;;;;;8.20;7.40;;;26.30;53.60;;;;;;5035653;28;20123;-82
2022/06/06 03:23:13;;;;;;;8.65;7.28;;;26.20;55.30;;;;;;5053100;28;20550;-78
2022/06/06 03:25:42;;;;;;;7.80;7.00;;;25.90;56.10;;;;;;5036440;28;20120;-81
2022/06/06 03:28:20;;;;;;;7.93;6.97;;;25.70;56.50;;;;;;5069377;28;20124;-79
2022/06/06 03:30:45;;;;;;;7.95;6.63;;;25.60;57.30;;;;;;5051581;28;20111;-80
2022/06/06 03:33:20;;;;;;;7.38;6.03;;;25.50;57.20;;;;;;5035396;28;20056;-81
2022/06/06 03:35:59;;;;;;;8.32;6.63;;;25.50;57.20;;;;;;5036501;28;20041;-80
2022/06/06 03:38:39;;;;;;;9.32;6.78;;;25.30;57.40;;;;;;5035913;28;20032;-82
2022/06/06 03:41:10;;;;;;;11.18;7.43;;;25.50;57.20;;;;;;5053582;28;20146;-80
2022/06/06 03:44:06;;;;;;;7.97;7.18;;;25.80;57.00;;;;;;5052118;28;20037;-83
2022/06/06 03:46:46;;;;;;;8.15;7.30;;;26.00;56.70;;;;;;5036800;28;20115;-81
2022/06/06 03:49:31;;;;;;;7.97;7.18;;;26.10;56.50;;;;;;5049380;28;20538;-80
2022/06/06 03:52:20;;;;;;;10.30;7.45;;;26.10;57.00;;;;;;5053970;28;20487;-81
2022/06/06 03:54:48;;;;;;;9.43;8.07;;;25.90;56.80;;;;;;5054071;28;20059;-82
2022/06/06 03:57:15;;;;;;;9.48;7.57;;;26.10;57.30;;;;;;5054868;28;20029;-83
2022/06/06 03:59:43;;;;;;;7.45;6.68;;;25.90;57.40;;;;;;5053867;28;20090;-80
2022/06/06 04:02:15;;;;;;;8.68;6.95;;;25.90;58.10;;;;;;5051705;28;20021;-83
2022/06/06 04:04:42;;;;;;;8.70;7.50;;;26.00;58.00;;;;;;5065075;28;20475;-79
2022/06/06 04:07:07;;;;;;;9.32;7.35;;;26.20;57.40;;;;;;5053357;28;20256;-80
2022/06/06 04:09:35;;;;;;;8.35;6.97;;;26.40;57.20;;;;;;5053259;28;20029;-81
2022/06/06 04:12:18;;;;;;;10.60;7.70;;;26.40;57.60;;;;;;5052674;28;20418;-79
2022/06/06 04:15:07;;;;;;;10.20;7.70;;;26.60;57.40;;;;;;5053425;28;20049;-79
2022/06/06 04:18:03;;;;;;;10.05;7.60;;;26.70;57.50;;;;;;5053112;28;20368;-81
2022/06/06 04:20:59;;;;;;;9.30;7.70;;;26.60;57.80;;;;;;5050906;28;20052;-81
2022/06/06 04:23:52;;;;;;;7.97;7.18;;;26.70;57.50;;;;;;5052437;28;20032;-81
2022/06/06 04:26:45;;;;;;;12.48;7.50;;;26.70;57.10;;;;;;5053362;28;20024;-79
2022/06/06 04:29:17;;;;;;;8.20;6.78;;;26.80;56.60;;;;;;5052210;28;20031;-80
2022/06/06 04:31:50;;;;;;;7.32;6.63;;;26.80;56.50;;;;;;5068108;28;20432;-83
2022/06/06 04:34:38;;;;;;;6.78;6.07;;;26.90;56.50;;;;;;5053598;28;20353;-82
2022/06/06 04:37:09;;;;;;;10.05;7.22;;;26.90;57.00;;;;;;5052832;28;20531;-80
2022/06/06 04:39:41;;;;;;;7.55;6.78;;;26.90;56.80;;;;;;5046769;28;20036;-81
2022/06/06 04:42:16;;;;;;;7.82;6.95;;;26.80;57.60;;;;;;5052565;28;20359;-80
2022/06/06 04:45:13;;;;;;;8.77;6.35;;;26.70;57.80;;;;;;5052514;28;20458;-80
2022/06/06 04:47:41;;;;;;;7.68;6.85;;;26.40;58.30;;;;;;5051752;28;20025;-81
2022/06/06 04:50:19;;;;;;;7.50;6.60;;;26.40;58.60;;;;;;5051305;28;20082;-80
2022/06/06 04:52:53;;;;;;;8.95;6.57;;;26.30;58.20;;;;;;5049293;28;20053;-80
2022/06/06 04:55:20;;;;;;;7.95;7.05;;;26.40;58.20;;;;;;5036532;28;20029;-77
2022/06/06 04:57:51;;;;;;;7.72;6.25;;;26.50;58.20;;;;;;5052648;28;20025;-81
2022/06/06 05:00:17;;;;;;;8.20;6.95;;;26.40;58.30;;;;;;5051701;28;20155;-81
2022/06/06 05:02:43;;;;;;;7.68;6.68;;;26.20;58.40;;;;;;5052389;28;20112;-80
2022/06/06 05:05:09;;;;;;;7.72;6.60;;;26.40;58.40;;;;;;5048924;28;20104;-78
2022/06/06 05:08:13;;;;;;;9.05;7.18;;;26.70;57.60;;;;;;5052346;28;20032;-78
2022/06/06 05:11:12;;;;;;;6.82;6.13;;;26.70;57.90;;;;;;5052154;28;20576;-79
2022/06/06 05:14:14;;;;;;;9.40;7.57;;;26.70;57.60;;;;;;5051854;28;20032;-82
2022/06/06 05:17:18;;;;;;;8.48;6.50;;;26.70;58.10;;;;;;5053258;28;20106;-78
2022/06/06 05:20:02;;;;;;;9.68;7.30;;;26.90;57.50;;;;;;5043427;28;20045;-81
2022/06/06 05:22:53;;;;;;;7.82;7.03;;;26.90;57.60;;;;;;5052475;28;20025;-80
2022/06/06 05:25:42;;;;;;;8.82;7.50;;;26.90;58.20;;;;;;5052942;28;20025;-80
2022/06/06 05:28:54;;;;;;;8.20;7.18;;;27.10;57.30;;;;;;5049091;28;20040;-80
2022/06/06 05:31:31;;;;;;;8.63;6.80;;;27.20;57.50;;;;;;5004571;28;20036;-83
2022/06/06 05:34:21;;;;;;;8.55;6.57;;;27.00;57.40;;;;;;5006555;28;20045;-80
2022/06/06 05:36:53;;;;;;;7.85;6.75;;;27.10;57.90;;;;;;5000078;28;20033;-80
2022/06/06 05:39:34;;;;;;;7.10;6.40;;;27.20;57.80;;;;;;5010718;28;20385;-77
2022/06/06 05:42:15;;;;;;;9.27;6.82;;;27.20;56.80;;;;;;4994558;28;20038;-81
2022/06/06 05:44:52;;;;;;;11.05;6.78;;;27.50;57.00;;;;;;5023125;28;20097;-77
2022/06/06 05:47:33;;;;;;;7.80;7.00;;;27.80;56.90;;;;;;5018674;28;20473;-82
2022/06/06 05:50:01;;;;;;;;;;;28.10;57.20;;;;;;5002325;28;20069;-81
2022/06/06 05:52:49;;;;;;;6.82;6.13;;;27.80;55.70;;;;;;5010086;28;20000;-78
2022/06/06 05:55:17;;;;;;;6.72;6.03;;;27.20;56.90;;;;;;5002581;28;20038;-80
2022/06/06 05:57:52;;;;;;;6.93;5.70;;;27.50;54.10;;;;;;4998888;28;20080;-82
2022/06/06 06:00:26;;;;;;;8.27;5.82;;;27.40;55.90;;;;;;5024017;28;20022;-79
2022/06/06 06:02:57;;;;;;;7.70;6.40;;;27.00;56.30;;;;;;5008437;28;20025;-80
2022/06/06 06:05:31;;;;;;;7.18;6.35;;;27.10;56.80;;;;;;5002737;28;20041;-79
2022/06/06 06:08:05;;;;;;;8.38;6.28;;;27.50;56.90;;;;;;5023804;28;20079;-83
2022/06/06 06:10:51;;;;;;;7.32;5.97;;;27.80;56.00;;;;;;5039792;28;20108;-79
2022/06/06 06:13:32;;;;;;;7.65;6.55;;;28.00;55.20;;;;;;5051316;28;20091;-78
2022/06/06 06:16:01;;;;;;;7.65;6.30;;;28.10;55.10;;;;;;5038575;28;20033;-82
2022/06/06 06:18:47;;;;;;;7.57;6.43;;;28.20;55.40;;;;;;5044072;28;20216;-82
2022/06/06 06:21:27;;;;;;;8.77;6.78;;;28.40;56.10;;;;;;5031820;28;20274;-77
2022/06/06 06:24:14;;;;;;;8.70;6.32;;;28.50;55.20;;;;;;5041948;28;20415;-81
2022/06/06 06:26:40;;;;;;;8.70;7.00;;;28.50;55.20;;;;;;5042123;28;20025;-80
2022/06/06 06:29:09;;;;;;;9.43;6.80;;;28.60;55.80;;;;;;5037524;28;20025;-79
2022/06/06 06:32:08;;;;;;;9.00;6.60;;;28.70;55.60;;;;;;5040032;28;20057;-81
2022/06/06 06:34:55;;;;;;;9.97;6.57;;;28.60;54.80;;;;;;5049370;28;20025;-81
2022/06/06 06:38:00;;;;;;;7.85;6.57;;;28.60;54.80;;;;;;5038232;28;20518;-81
2022/06/06 06:40:56;;;;;;;7.80;6.80;;;28.70;55.10;;;;;;5044980;28;20033;-78
2022/06/06 06:43:40;;;;;;;8.57;6.43;;;28.70;55.30;;;;;;5054445;28;20052;-80
2022/06/06 06:46:24;;;;;;;7.93;6.47;;;28.70;55.10;;;;;;5037531;28;20029;-79
2022/06/06 06:48:51;;;;;;;9.10;5.60;;;28.70;54.50;;;;;;5038985;28;20113;-77
2022/06/06 06:51:22;;;;;;;7.30;6.15;;;28.50;53.90;;;;;;5048220;28;20029;-79
2022/06/06 06:54:14;;;;;;;9.23;6.32;;;28.50;54.10;;;;;;5028603;28;20029;-79
2022/06/06 06:57:04;;;;;;;9.15;5.90;;;28.50;54.50;;;;;;5034322;28;20411;-78
2022/06/06 06:59:41;;;;;;;8.20;6.30;;;28.30;54.90;;;;;;5050162;28;20052;-78
2022/06/06 07:08:34;;;;;;;7.07;5.78;;;28.40;54.40;;;;;;5053790;28;20052;-77
2022/06/06 07:11:12;;;;;;;6.47;5.50;;;28.40;53.70;;;;;;5051924;28;20581;-77
2022/06/06 07:13:59;;;;;;;8.98;6.28;;;28.40;53.20;;;;;;5036783;28;20063;-77
2022/06/06 07:16:28;;;;;;;6.25;5.50;;;28.50;54.50;;;;;;5053823;28;20090;-78
2022/06/06 07:19:15;;;;;;;7.13;6.00;;;28.60;54.40;;;;;;5055781;28;20017;-78
2022/06/06 07:21:43;;;;;;;8.18;5.55;;;28.50;54.00;;;;;;5054542;28;20033;-77
2022/06/06 07:24:17;;;;;;;6.05;5.30;;;28.30;53.40;;;;;;5041583;28;20018;-79
2022/06/06 07:26:44;;;;;;;7.72;5.20;;;28.50;53.30;;;;;;5036509;28;20022;-77
2022/06/06 07:29:13;;;;;;;7.10;5.60;;;28.70;53.30;;;;;;5051383;28;20367;-78
2022/06/06 07:31:54;;;;;;;7.60;5.47;;;28.90;53.20;;;;;;5054170;28;20036;-77
2022/06/06 07:34:29;;;;;;;7.80;5.60;;;29.20;53.30;;;;;;5043698;28;20029;-78
2022/06/06 07:37:04;;;;;;;6.78;5.50;;;29.50;53.00;;;;;;5055521;28;20048;-78
2022/06/06 07:39:43;;;;;;;8.48;5.20;;;29.70;53.40;;;;;;5034955;28;20472;-80
2022/06/06 07:42:26;;;;;;;7.68;5.68;;;29.70;52.80;;;;;;5034356;28;20022;-77
2022/06/06 07:45:23;;;;;;;5.97;5.10;;;30.00;52.10;;;;;;5035175;28;20494;-82
2022/06/06 07:47:49;;;;;;;7.00;4.90;;;30.10;51.60;;;;;;5034629;28;20471;-75
2022/06/06 07:50:21;;;;;;;6.25;5.10;;;30.30;51.60;;;;;;5042456;28;20021;-78
2022/06/06 07:52:58;;;;;;;6.50;5.30;;;30.20;51.40;;;;;;5055094;28;20056;-78
2022/06/06 07:55:41;;;;;;;5.97;5.20;;;30.10;51.70;;;;;;5053879;28;20441;-78
2022/06/06 07:58:21;;;;;;;6.28;4.85;;;30.30;51.20;;;;;;5042264;28;20022;-78
2022/06/06 08:01:05;;;;;;;9.45;5.25;;;30.10;50.40;;;;;;5033915;28;20441;-85
2022/06/06 08:03:43;;;;;;;7.38;5.05;;;30.10;51.00;;;;;;5035415;28;20018;-82
2022/06/06 08:06:44;;;;;;;7.65;5.25;;;29.60;52.50;;;;;;5035304;28;20032;-80
2022/06/06 08:09:47;;;;;;;6.30;5.45;;;29.60;51.70;;;;;;5034021;28;20057;-76
2022/06/06 08:12:47;;;;;;;5.90;5.07;;;29.40;50.20;;;;;;5035145;28;20049;-85
2022/06/06 08:15:20;;;;;;;6.25;5.10;;;29.20;50.10;;;;;;5042698;28;20495;-81
2022/06/06 08:18:27;;;;;;;7.07;4.90;;;29.40;52.10;;;;;;5052425;28;20017;-82
2022/06/06 08:21:09;;;;;;;6.53;4.95;;;29.40;52.00;;;;;;5041189;28;20028;-79
2022/06/06 08:23:37;;;;;;;6.97;5.40;;;29.40;51.70;;;;;;5048284;28;20428;-77
2022/06/06 08:26:04;;;;;;;5.60;4.97;;;29.80;51.00;;;;;;5039417;28;20091;-80
2022/06/06 08:28:36;;;;;;;7.00;4.70;;;30.10;50.50;;;;;;5053210;28;20352;-79
2022/06/06 08:31:01;;;;;;;6.68;4.82;;;30.50;49.70;;;;;;5054922;28;20025;-84
2022/06/06 08:33:27;;;;;;;6.03;4.90;;;30.40;50.60;;;;;;5053379;28;20067;-78
2022/06/06 08:36:14;;;;;;;5.80;4.90;;;30.40;51.50;;;;;;5054147;28;20043;-77
2022/06/06 08:38:43;;;;;;;8.93;4.97;;;30.60;51.10;;;;;;5053467;28;20021;-78
2022/06/06 08:41:43;;;;;;;6.13;4.73;;;30.90;50.70;;;;;;5052983;28;20029;-77
2022/06/06 08:44:36;;;;;;;5.97;4.65;;;31.00;50.20;;;;;;5052809;28;20262;-84
2022/06/06 08:47:08;;;;;;;5.47;4.63;;;31.30;50.40;;;;;;5052945;28;20033;-77
2022/06/06 08:53:11;;;;;;;5.35;4.47;;;31.00;51.30;;;;;;5054594;28;20051;-83
2022/06/06 08:55:56;;;;;;;6.43;5.00;;;30.70;51.90;;;;;;5053023;28;20395;-79
2022/06/06 08:58:49;;;;;;;8.15;4.97;;;30.70;53.20;;;;;;5053351;28;20029;-80
2022/06/06 09:01:39;;;;;;;7.00;4.93;;;30.90;52.20;;;;;;5052668;28;20052;-78
2022/06/06 09:04:21;;;;;;;5.25;4.68;;;31.30;51.80;;;;;;5053174;28;20017;-83
2022/06/06 09:06:59;;;;;;;7.90;5.28;;;31.10;51.80;;;;;;5052376;28;20476;-78
2022/06/06 09:09:50;;;;;;;6.15;4.88;;;31.10;52.90;;;;;;5054008;28;20017;-80
2022/06/06 09:12:37;;;;;;;6.20;5.03;;;31.70;52.50;;;;;;5053994;28;20044;-82
2022/06/06 09:15:23;;;;;;;5.45;4.90;;;31.40;51.80;;;;;;5052328;28;20052;-82
2022/06/06 09:18:10;;;;;;;5.57;4.90;;;31.40;52.10;;;;;;5052309;28;20021;-80
2022/06/06 09:20:56;;;;;;;6.35;5.00;;;31.80;52.50;;;;;;5052616;28;20024;-80
2022/06/06 09:23:43;;;;;;;7.68;4.78;;;31.80;51.90;;;;;;5052488;28;20021;-80
2022/06/06 09:26:30;;;;;;;5.60;4.68;;;31.40;51.20;;;;;;5053646;28;20017;-79
2022/06/06 09:29:20;;;;;;;5.30;4.70;;;31.40;51.90;;;;;;5052253;28;20029;-80
2022/06/06 09:32:18;;;;;;;6.03;4.85;;;31.50;51.40;;;;;;5053432;28;20480;-82
2022/06/06 09:35:15;;;;;;;5.63;5.10;;;31.30;52.30;;;;;;5052181;28;20040;-80
2022/06/06 09:38:12;;;;;;;7.13;4.93;;;31.10;52.30;;;;;;5052298;28;20076;-79
2022/06/06 09:40:56;;;;;;;5.95;5.05;;;31.70;52.30;;;;;;5051056;28;20033;-79
2022/06/06 09:43:40;;;;;;;5.85;5.25;;;31.60;51.80;;;;;;5050955;28;20424;-83
2022/06/06 09:46:45;;;;;;;9.48;5.20;;;31.90;52.60;;;;;;5063185;28;20068;-81
2022/06/06 09:49:20;;;;;;;5.55;4.60;;;32.20;52.10;;;;;;5071291;28;20016;-89
2022/06/06 09:52:38;;;;;;;6.13;4.93;;;32.20;49.90;;;;;;5071548;28;20037;-79
2022/06/06 10:01:26;;;;;;;7.38;5.28;;;31.90;49.60;;;;;;4953152;29;20505;-78
2022/06/06 10:04:03;;;;;;;6.80;4.53;;;32.00;50.60;;;;;;4911581;29;20027;-78
2022/06/06 10:06:46;;;;;;;5.95;4.95;;;31.50;50.80;;;;;;4930062;29;20582;-81
2022/06/06 10:09:44;;;;;;;6.68;4.63;;;31.20;51.70;;;;;;4925843;29;20036;-79
2022/06/06 10:12:33;;;;;;;8.23;4.68;;;31.30;52.10;;;;;;4931945;29;20118;-79
2022/06/06 10:15:04;;;;;;;14.73;4.93;;;31.20;50.50;;;;;;4923427;29;20100;-79
2022/06/06 10:18:07;;;;;;;6.63;4.65;;;31.30;51.70;;;;;;4910986;29;20032;-83
2022/06/06 10:20:51;;;;;;;5.82;4.88;;;31.60;48.50;;;;;;4897247;29;20016;-77
2022/06/06 10:23:54;;;;;;;5.93;4.93;;;31.00;51.00;;;;;;4904797;29;20420;-81
2022/06/06 10:26:57;;;;;;;5.05;4.55;;;31.40;50.30;;;;;;4914788;29;20067;-77
2022/06/06 10:33:06;;;;;;;5.90;4.60;;;32.80;49.50;;;;;;4986732;28;20543;-79
2022/06/06 10:36:05;;;;;;;6.18;4.38;;;31.80;50.30;;;;;;5006501;28;20065;-79
2022/06/06 10:39:00;;;;;;;5.32;4.53;;;31.50;50.40;;;;;;5010257;28;20464;-79
2022/06/06 10:41:57;;;;;;;5.90;4.82;;;31.60;49.50;;;;;;5035953;28;20036;-77
2022/06/06 10:44:45;;;;;;;5.78;4.78;;;31.70;50.00;;;;;;5024235;28;20022;-88
2022/06/06 10:47:32;;;;;;;6.63;4.97;;;31.90;50.60;;;;;;5029500;28;20526;-75
2022/06/06 10:50:08;;;;;;;6.05;5.05;;;32.50;49.40;;;;;;5030379;28;20029;-78
2022/06/06 10:53:07;;;;;;;6.30;4.45;;;32.70;51.60;;;;;;5019777;28;20140;-82
2022/06/06 10:55:52;;;;;;;6.85;4.80;;;33.20;48.80;;;;;;5030773;28;20060;-84
2022/06/06 10:58:46;;;;;;;5.55;4.25;;;31.70;48.50;;;;;;5031289;28;20030;-80
2022/06/06 11:01:37;;;;;;;8.10;4.25;;;31.00;51.60;;;;;;5031656;28;20025;-80
2022/06/06 11:04:28;;;;;;;5.22;4.72;;;31.40;51.20;;;;;;5013215;28;20065;-86
2022/06/06 11:07:03;;;;;;;6.40;4.38;;;31.20;50.50;;;;;;5025082;28;20472;-77
2022/06/06 11:10:13;;;;;;;4.40;4.00;;;31.60;50.50;;;;;;5039898;28;20133;-84
2022/06/06 11:13:10;;;;;;;9.68;4.15;;;32.50;48.50;;;;;;5020884;28;20360;-85
2022/06/06 11:15:41;;;;;;;7.43;4.32;;;31.70;49.20;;;;;;5028603;28;20049;-80
2022/06/06 11:18:34;;;;;;;11.25;4.93;;;31.70;49.40;;;;;;5015875;28;20034;-85
2022/06/06 11:21:27;;;;;;;5.32;4.53;;;32.20;49.80;;;;;;5009592;28;20033;-79
2022/06/06 11:24:18;;;;;;;6.45;4.30;;;32.70;48.40;;;;;;4999115;28;20079;-82
2022/06/06 11:26:57;;;;;;;6.88;4.32;;;32.60;47.30;;;;;;5014667;28;20033;-80
2022/06/06 11:29:42;;;;;;;4.78;4.13;;;32.20;48.80;;;;;;5006178;28;20364;-81
2022/06/06 11:32:20;;;;;;;5.80;4.53;;;31.30;48.30;;;;;;4996496;28;20387;-83
2022/06/06 11:35:23;;;;;;;5.55;4.95;;;31.50;48.40;;;;;;5004618;28;20511;-81
2022/06/06 11:38:23;;;;;;;5.65;4.60;;;31.40;51.50;;;;;;5006897;28;20436;-80
2022/06/06 11:41:10;;;;;;;5.60;4.60;;;31.60;49.30;;;;;;4999638;28;20027;-82
2022/06/06 11:43:58;;;;;;;13.00;4.47;;;31.60;49.90;;;;;;5014871;28;20049;-80
2022/06/06 11:46:43;;;;;;;5.80;4.47;;;32.00;49.70;;;;;;5008237;28;20306;-80
2022/06/06 11:49:50;;;;;;;5.68;4.38;;;32.40;50.20;;;;;;4995255;28;20038;-84
2022/06/06 11:52:44;;;;;;;9.30;4.30;;;32.40;49.60;;;;;;4995738;28;20034;-78
2022/06/06 11:55:35;;;;;;;6.20;4.45;;;32.40;50.40;;;;;;4994672;28;20030;-76
2022/06/06 11:58:29;;;;;;;6.10;4.50;;;32.80;48.00;;;;;;5012996;28;20337;-78
2022/06/06 12:01:28;;;;;;;5.85;4.38;;;33.10;49.20;;;;;;5015106;28;20076;-79
2022/06/06 12:04:12;;;;;;;7.65;4.30;;;33.50;47.90;;;;;;5011679;28;20125;-78
2022/06/06 12:06:56;;;;;;;6.40;4.50;;;33.80;47.30;;;;;;5009739;28;20072;-78
2022/06/06 12:09:40;;;;;;;6.82;4.28;;;33.70;46.80;;;;;;5006948;28;20022;-80
2022/06/06 12:12:24;;;;;;;5.78;4.30;;;33.50;48.80;;;;;;5007888;28;20025;-83
2022/06/06 12:14:56;;;;;;;5.15;4.53;;;33.20;47.20;;;;;;5017931;28;20375;-79
2022/06/06 12:17:33;;;;;;;5.22;4.10;;;31.80;48.60;;;;;;5051915;28;20115;-77
2022/06/06 12:20:36;;;;;;;5.38;4.40;;;32.10;50.00;;;;;;5051219;28;20017;-77
2022/06/06 12:23:35;;;;;;;7.10;4.28;;;32.80;48.10;;;;;;4684047;28;9999804;-79
2022/06/06 12:26:25;;;;;;;5.28;4.45;;;32.90;47.40;;;;;;5035015;28;20044;-79
2022/06/06 12:29:16;;;;;;;6.68;4.05;;;32.60;48.40;;;;;;5032625;28;20009;-79
2022/06/06 12:32:18;;;;;;;5.18;4.47;;;32.90;48.00;;;;;;5046317;28;20029;-81
2022/06/06 12:35:13;;;;;;;5.55;3.97;;;33.20;48.10;;;;;;5047315;28;20033;-78
2022/06/06 12:37:51;;;;;;;7.47;4.70;;;33.30;49.00;;;;;;5054619;28;20091;-80
2022/06/06 12:40:20;;;;;;;4.82;4.20;;;33.20;48.70;;;;;;5041115;28;20017;-78
2022/06/06 12:43:07;;;;;;;5.38;4.00;;;32.70;47.30;;;;;;5057116;28;20021;-79
2022/06/06 12:45:58;;;;;;;6.32;4.43;;;32.10;48.40;;;;;;5033346;28;20075;-77
2022/06/06 12:48:44;;;;;;;5.78;4.22;;;31.90;48.50;;;;;;5040405;28;20026;-78
2022/06/06 12:51:43;;;;;;;6.75;4.43;;;32.30;49.60;;;;;;5045901;28;21671;-87
2022/06/06 12:54:11;;;;;;;4.45;4.03;;;32.30;48.50;;;;;;5047446;28;20573;-77
2022/06/06 12:57:03;;;;;;;5.22;4.40;;;32.20;48.10;;;;;;5031909;28;20048;-76
2022/06/06 12:59:39;;;;;;;5.63;4.65;;;31.60;48.50;;;;;;5068725;28;20405;-78
2022/06/06 13:02:42;;;;;;;5.53;4.20;;;31.70;50.30;;;;;;5055030;28;20059;-78
2022/06/06 13:05:25;;;;;;;5.88;4.32;;;31.90;48.90;;;;;;5046733;28;20129;-82
2022/06/06 13:08:12;;;;;;;5.47;4.40;;;32.20;49.10;;;;;;5039694;28;20020;-79
2022/06/06 13:10:46;;;;;;;5.90;4.43;;;32.50;48.60;;;;;;5041403;28;20438;-80
2022/06/06 13:13:22;;;;;;;9.50;4.95;;;32.90;49.40;;;;;;5062668;28;20024;-83
2022/06/06 13:16:13;;;;;;;5.88;4.35;;;33.00;48.40;;;;;;5063325;28;20048;-77
2022/06/06 13:18:57;;;;;;;6.47;4.63;;;33.30;49.10;;;;;;5040509;28;20168;-77
2022/06/06 13:21:59;;;;;;;5.13;4.28;;;33.10;47.60;;;;;;5035583;28;20017;-79
2022/06/06 13:25:02;;;;;;;6.45;4.40;;;33.10;48.20;;;;;;5063065;28;20085;-80
2022/06/06 13:27:34;;;;;;;7.97;4.53;;;33.00;47.80;;;;;;5062056;28;20513;-78
2022/06/06 13:30:23;;;;;;;5.65;4.30;;;33.10;48.40;;;;;;5054855;28;20036;-81
2022/06/06 13:33:26;;;;;;;8.73;4.33;;;33.20;47.90;;;;;;5041549;28;20521;-78
2022/06/06 13:36:00;;;;;;;7.55;5.47;;;33.40;47.90;;;;;;5064045;28;20044;-76
2022/06/06 13:38:43;;;;;;;6.70;4.28;;;32.90;47.00;;;;;;5034376;28;20028;-81
2022/06/06 13:41:15;;;;;;;4.85;3.97;;;33.20;47.50;;;;;;5036924;28;20021;-78
2022/06/06 13:43:41;;;;;;;7.85;4.20;;;33.20;46.80;;;;;;5035058;28;20021;-79
2022/06/06 13:46:22;;;;;;;8.45;4.35;;;33.20;47.70;;;;;;5042594;28;20031;-78
2022/06/06 13:49:02;;;;;;;10.05;4.35;;;33.40;46.60;;;;;;5050424;28;20033;-77
2022/06/06 13:51:30;;;;;;;8.10;4.22;;;33.40;47.10;;;;;;5036250;28;20040;-79
2022/06/06 13:54:10;;;;;;;5.50;4.45;;;33.30;46.10;;;;;;5043781;28;20032;-77
2022/06/06 13:56:55;;;;;;;8.45;4.60;;;33.30;47.00;;;;;;5036200;28;20025;-77
2022/06/06 13:59:21;;;;;;;5.75;4.22;;;33.40;46.40;;;;;;5047814;28;20132;-76
2022/06/06 14:02:34;;;;;;;9.07;4.25;;;33.50;46.10;;;;;;5048177;28;20108;-77
2022/06/06 14:05:18;;;;;;;5.22;4.05;;;33.60;46.60;;;;;;5042953;28;20048;-76
2022/06/06 14:08:01;;;;;;;6.25;4.10;;;33.40;45.80;;;;;;5047499;28;20041;-79
2022/06/06 14:10:53;;;;;;;5.13;4.28;;;33.20;46.80;;;;;;4683506;28;10000257;-86
2022/06/06 14:13:47;;;;;;;5.30;3.60;;;33.40;46.70;;;;;;5040976;28;20025;-79
2022/06/06 14:16:27;;;;;;;7.00;4.20;;;33.50;45.70;;;;;;5035745;28;20095;-90
2022/06/06 14:19:05;;;;;;;6.38;3.90;;;33.50;45.50;;;;;;5048544;28;20032;-84
2022/06/06 14:21:34;;;;;;;6.20;3.90;;;33.70;45.50;;;;;;5049527;28;20124;-80